sensor_id;sensor_type;location;lat;lon;timestamp;P1;durP1;ratioP1;P2;durP2;ratioP2
7213;SDS011;3648;50.614;13.830;2023-04-24T00:01:37;10.93;;;9.27;;
7213;SDS011;3648;50.614;13.830;2023-04-24T00:04:04;9.50;;;8.50;;
7213;SDS011;3648;50.614;13.830;2023-04-24T00:06:32;11.60;;;9.30;;
7213;SDS011;3648;50.614;13.830;2023-04-24T00:08:59;10.73;;;8.80;;
7213;SDS011;3648;50.614;13.830;2023-04-24T00:11:27;11.57;;;10.10;;
7213;SDS011;3648;50.614;13.830;2023-04-24T00:13:54;10.70;;;9.57;;
7213;SDS011;3648;50.614;13.830;2023-04-24T00:16:23;10.90;;;9.80;;
7213;SDS011;3648;50.614;13.830;2023-04-24T00:18:50;10.87;;;9.77;;
7213;SDS011;3648;50.614;13.830;2023-04-24T00:21:21;12.07;;;9.93;;
7213;SDS011;3648;50.614;13.830;2023-04-24T00:23:50;11.93;;;10.53;;
7213;SDS011;3648;50.614;13.830;2023-04-24T00:26:17;10.90;;;9.73;;
7213;SDS011;3648;50.614;13.830;2023-04-24T00:29:02;12.90;;;10.03;;
7213;SDS011;3648;50.614;13.830;2023-04-24T00:31:30;11.47;;;9.93;;
7213;SDS011;3648;50.614;13.830;2023-04-24T00:33:59;10.53;;;9.37;;
7213;SDS011;3648;50.614;13.830;2023-04-24T00:36:26;11.90;;;10.27;;
7213;SDS011;3648;50.614;13.830;2023-04-24T00:38:53;11.30;;;9.13;;
7213;SDS011;3648;50.614;13.830;2023-04-24T00:41:20;11.40;;;10.07;;
7213;SDS011;3648;50.614;13.830;2023-04-24T00:43:47;11.50;;;9.77;;
7213;SDS011;3648;50.614;13.830;2023-04-24T00:46:14;17.83;;;14.17;;
7213;SDS011;3648;50.614;13.830;2023-04-24T00:48:44;30.63;;;20.53;;
7213;SDS011;3648;50.614;13.830;2023-04-24T00:51:11;30.43;;;21.07;;
7213;SDS011;3648;50.614;13.830;2023-04-24T00:53:38;21.23;;;15.43;;
7213;SDS011;3648;50.614;13.830;2023-04-24T00:56:05;20.73;;;14.40;;
7213;SDS011;3648;50.614;13.830;2023-04-24T00:58:32;15.40;;;13.07;;
7213;SDS011;3648;50.614;13.830;2023-04-24T01:00:59;22.33;;;16.37;;
7213;SDS011;3648;50.614;13.830;2023-04-24T01:03:28;22.20;;;15.77;;
7213;SDS011;3648;50.614;13.830;2023-04-24T01:05:57;15.47;;;12.57;;
7213;SDS011;3648;50.614;13.830;2023-04-24T01:08:25;13.53;;;10.70;;
7213;SDS011;3648;50.614;13.830;2023-04-24T01:10:54;13.83;;;11.40;;
7213;SDS011;3648;50.614;13.830;2023-04-24T01:13:22;12.53;;;10.70;;
7213;SDS011;3648;50.614;13.830;2023-04-24T01:15:50;11.83;;;10.27;;
7213;SDS011;3648;50.614;13.830;2023-04-24T01:18:17;16.07;;;13.33;;
7213;SDS011;3648;50.614;13.830;2023-04-24T01:20:44;29.13;;;20.83;;
7213;SDS011;3648;50.614;13.830;2023-04-24T01:23:13;17.80;;;13.30;;
7213;SDS011;3648;50.614;13.830;2023-04-24T01:25:40;15.27;;;11.90;;
7213;SDS011;3648;50.614;13.830;2023-04-24T01:28:07;13.77;;;10.10;;
7213;SDS011;3648;50.614;13.830;2023-04-24T01:30:34;12.73;;;9.50;;
7213;SDS011;3648;50.614;13.830;2023-04-24T01:33:01;12.93;;;8.93;;
7213;SDS011;3648;50.614;13.830;2023-04-24T01:35:28;11.53;;;8.63;;
7213;SDS011;3648;50.614;13.830;2023-04-24T01:37:55;11.40;;;8.30;;
7213;SDS011;3648;50.614;13.830;2023-04-24T01:40:24;9.83;;;8.83;;
7213;SDS011;3648;50.614;13.830;2023-04-24T01:42:51;12.47;;;9.37;;
7213;SDS011;3648;50.614;13.830;2023-04-24T01:45:18;11.80;;;9.17;;
7213;SDS011;3648;50.614;13.830;2023-04-24T01:47:45;12.63;;;8.50;;
7213;SDS011;3648;50.614;13.830;2023-04-24T01:50:14;16.83;;;9.20;;
7213;SDS011;3648;50.614;13.830;2023-04-24T01:52:41;12.37;;;8.13;;
7213;SDS011;3648;50.614;13.830;2023-04-24T01:55:08;19.33;;;11.10;;
7213;SDS011;3648;50.614;13.830;2023-04-24T01:57:37;18.73;;;10.83;;
7213;SDS011;3648;50.614;13.830;2023-04-24T02:00:05;45.57;;;28.83;;
7213;SDS011;3648;50.614;13.830;2023-04-24T02:02:33;44.43;;;27.00;;
7213;SDS011;3648;50.614;13.830;2023-04-24T02:05:00;28.57;;;15.40;;
7213;SDS011;3648;50.614;13.830;2023-04-24T02:07:27;25.70;;;15.07;;
7213;SDS011;3648;50.614;13.830;2023-04-24T02:09:54;20.17;;;12.77;;
7213;SDS011;3648;50.614;13.830;2023-04-24T02:12:21;13.40;;;9.93;;
7213;SDS011;3648;50.614;13.830;2023-04-24T02:14:50;15.73;;;9.50;;
7213;SDS011;3648;50.614;13.830;2023-04-24T02:17:17;15.50;;;9.07;;
7213;SDS011;3648;50.614;13.830;2023-04-24T02:19:44;12.20;;;8.07;;
7213;SDS011;3648;50.614;13.830;2023-04-24T02:22:11;28.30;;;16.10;;
7213;SDS011;3648;50.614;13.830;2023-04-24T02:24:38;17.23;;;10.83;;
7213;SDS011;3648;50.614;13.830;2023-04-24T02:27:05;13.07;;;7.80;;
7213;SDS011;3648;50.614;13.830;2023-04-24T02:29:32;9.67;;;7.57;;
7213;SDS011;3648;50.614;13.830;2023-04-24T02:32:01;9.83;;;6.63;;
7213;SDS011;3648;50.614;13.830;2023-04-24T02:34:28;7.00;;;6.23;;
7213;SDS011;3648;50.614;13.830;2023-04-24T02:36:55;7.57;;;6.43;;
7213;SDS011;3648;50.614;13.830;2023-04-24T02:39:22;6.30;;;5.70;;
7213;SDS011;3648;50.614;13.830;2023-04-24T02:41:49;7.87;;;6.67;;
7213;SDS011;3648;50.614;13.830;2023-04-24T02:44:16;8.60;;;6.77;;
7213;SDS011;3648;50.614;13.830;2023-04-24T02:46:43;6.87;;;6.03;;
7213;SDS011;3648;50.614;13.830;2023-04-24T02:49:11;7.10;;;5.37;;
7213;SDS011;3648;50.614;13.830;2023-04-24T02:51:38;9.03;;;6.33;;
7213;SDS011;3648;50.614;13.830;2023-04-24T02:54:06;6.33;;;5.63;;
7213;SDS011;3648;50.614;13.830;2023-04-24T02:56:34;5.70;;;4.27;;
7213;SDS011;3648;50.614;13.830;2023-04-24T02:59:01;7.47;;;4.33;;
7213;SDS011;3648;50.614;13.830;2023-04-24T03:01:28;5.47;;;3.83;;
7213;SDS011;3648;50.614;13.830;2023-04-24T03:03:55;4.53;;;4.13;;
7213;SDS011;3648;50.614;13.830;2023-04-24T03:06:24;7.17;;;4.77;;
7213;SDS011;3648;50.614;13.830;2023-04-24T03:08:52;4.53;;;3.83;;
7213;SDS011;3648;50.614;13.830;2023-04-24T03:11:19;5.07;;;4.13;;
7213;SDS011;3648;50.614;13.830;2023-04-24T03:13:46;4.70;;;3.70;;
7213;SDS011;3648;50.614;13.830;2023-04-24T03:16:13;4.53;;;3.20;;
7213;SDS011;3648;50.614;13.830;2023-04-24T03:18:40;4.83;;;3.60;;
7213;SDS011;3648;50.614;13.830;2023-04-24T03:21:07;3.50;;;2.53;;
7213;SDS011;3648;50.614;13.830;2023-04-24T03:23:35;3.37;;;2.40;;
7213;SDS011;3648;50.614;13.830;2023-04-24T03:26:02;3.40;;;2.30;;
7213;SDS011;3648;50.614;13.830;2023-04-24T03:28:29;3.50;;;2.43;;
7213;SDS011;3648;50.614;13.830;2023-04-24T03:30:56;2.07;;;1.87;;
7213;SDS011;3648;50.614;13.830;2023-04-24T03:33:23;4.03;;;2.93;;
7213;SDS011;3648;50.614;13.830;2023-04-24T03:35:50;5.00;;;2.37;;
7213;SDS011;3648;50.614;13.830;2023-04-24T03:38:17;5.00;;;2.60;;
7213;SDS011;3648;50.614;13.830;2023-04-24T03:40:46;3.57;;;2.83;;
7213;SDS011;3648;50.614;13.830;2023-04-24T03:43:13;4.73;;;2.80;;
7213;SDS011;3648;50.614;13.830;2023-04-24T03:45:40;3.13;;;2.80;;
7213;SDS011;3648;50.614;13.830;2023-04-24T03:48:07;3.63;;;3.07;;
7213;SDS011;3648;50.614;13.830;2023-04-24T03:50:34;3.03;;;2.70;;
7213;SDS011;3648;50.614;13.830;2023-04-24T03:53:01;3.13;;;2.80;;
7213;SDS011;3648;50.614;13.830;2023-04-24T03:55:28;3.27;;;2.97;;
7213;SDS011;3648;50.614;13.830;2023-04-24T03:57:57;3.37;;;2.83;;
7213;SDS011;3648;50.614;13.830;2023-04-24T04:00:24;3.03;;;2.73;;
7213;SDS011;3648;50.614;13.830;2023-04-24T04:02:51;3.47;;;2.87;;
7213;SDS011;3648;50.614;13.830;2023-04-24T04:05:18;4.63;;;3.00;;
7213;SDS011;3648;50.614;13.830;2023-04-24T04:07:45;3.67;;;2.97;;
7213;SDS011;3648;50.614;13.830;2023-04-24T04:10:12;4.47;;;3.50;;
7213;SDS011;3648;50.614;13.830;2023-04-24T04:12:39;5.57;;;3.83;;
7213;SDS011;3648;50.614;13.830;2023-04-24T04:15:08;4.63;;;2.80;;
7213;SDS011;3648;50.614;13.830;2023-04-24T04:17:35;6.70;;;3.27;;
7213;SDS011;3648;50.614;13.830;2023-04-24T04:20:03;5.03;;;3.00;;
7213;SDS011;3648;50.614;13.830;2023-04-24T04:22:33;5.73;;;3.47;;
7213;SDS011;3648;50.614;13.830;2023-04-24T04:25:00;4.43;;;3.10;;
7213;SDS011;3648;50.614;13.830;2023-04-24T04:27:27;3.87;;;3.10;;
7213;SDS011;3648;50.614;13.830;2023-04-24T04:29:57;7.47;;;3.07;;
7213;SDS011;3648;50.614;13.830;2023-04-24T04:32:26;5.37;;;3.30;;
7213;SDS011;3648;50.614;13.830;2023-04-24T04:34:52;6.93;;;3.40;;
7213;SDS011;3648;50.614;13.830;2023-04-24T04:37:20;4.87;;;2.83;;
7213;SDS011;3648;50.614;13.830;2023-04-24T04:39:47;3.73;;;3.20;;
7213;SDS011;3648;50.614;13.830;2023-04-24T04:42:14;4.50;;;3.97;;
7213;SDS011;3648;50.614;13.830;2023-04-24T04:44:41;4.23;;;3.10;;
7213;SDS011;3648;50.614;13.830;2023-04-24T04:47:08;5.93;;;3.40;;
7213;SDS011;3648;50.614;13.830;2023-04-24T04:49:37;6.83;;;3.50;;
7213;SDS011;3648;50.614;13.830;2023-04-24T04:52:04;6.13;;;4.73;;
7213;SDS011;3648;50.614;13.830;2023-04-24T04:54:31;8.77;;;5.63;;
7213;SDS011;3648;50.614;13.830;2023-04-24T04:56:58;7.30;;;5.37;;
7213;SDS011;3648;50.614;13.830;2023-04-24T04:59:25;5.73;;;4.40;;
7213;SDS011;3648;50.614;13.830;2023-04-24T05:01:53;5.63;;;4.03;;
7213;SDS011;3648;50.614;13.830;2023-04-24T05:04:20;4.93;;;3.83;;
7213;SDS011;3648;50.614;13.830;2023-04-24T05:06:48;5.00;;;3.60;;
7213;SDS011;3648;50.614;13.830;2023-04-24T05:09:16;4.33;;;2.50;;
7213;SDS011;3648;50.614;13.830;2023-04-24T05:11:43;5.87;;;3.23;;
7213;SDS011;3648;50.614;13.830;2023-04-24T05:14:11;3.80;;;2.70;;
7213;SDS011;3648;50.614;13.830;2023-04-24T05:16:38;4.73;;;2.73;;
7213;SDS011;3648;50.614;13.830;2023-04-24T05:19:06;4.93;;;3.50;;
7213;SDS011;3648;50.614;13.830;2023-04-24T05:21:33;7.53;;;3.83;;
7213;SDS011;3648;50.614;13.830;2023-04-24T05:24:01;5.97;;;3.63;;
7213;SDS011;3648;50.614;13.830;2023-04-24T05:26:28;6.47;;;3.20;;
7213;SDS011;3648;50.614;13.830;2023-04-24T05:28:55;5.47;;;3.33;;
7213;SDS011;3648;50.614;13.830;2023-04-24T05:31:22;7.37;;;3.10;;
7213;SDS011;3648;50.614;13.830;2023-04-24T05:33:50;4.50;;;3.33;;
7213;SDS011;3648;50.614;13.830;2023-04-24T05:36:17;4.67;;;3.30;;
7213;SDS011;3648;50.614;13.830;2023-04-24T05:38:45;5.97;;;4.10;;
7213;SDS011;3648;50.614;13.830;2023-04-24T05:41:13;5.53;;;4.07;;
7213;SDS011;3648;50.614;13.830;2023-04-24T05:43:40;4.03;;;3.70;;
7213;SDS011;3648;50.614;13.830;2023-04-24T05:46:07;5.23;;;3.50;;
7213;SDS011;3648;50.614;13.830;2023-04-24T05:48:34;5.07;;;3.80;;
7213;SDS011;3648;50.614;13.830;2023-04-24T05:51:01;6.57;;;3.90;;
7213;SDS011;3648;50.614;13.830;2023-04-24T05:53:28;4.20;;;3.80;;
7213;SDS011;3648;50.614;13.830;2023-04-24T05:55:55;4.57;;;3.83;;
7213;SDS011;3648;50.614;13.830;2023-04-24T05:58:23;7.60;;;6.50;;
7213;SDS011;3648;50.614;13.830;2023-04-24T06:00:50;18.03;;;9.23;;
7213;SDS011;3648;50.614;13.830;2023-04-24T06:03:18;6.53;;;5.73;;
7213;SDS011;3648;50.614;13.830;2023-04-24T06:05:45;8.20;;;7.37;;
7213;SDS011;3648;50.614;13.830;2023-04-24T06:08:12;10.57;;;8.03;;
7213;SDS011;3648;50.614;13.830;2023-04-24T06:10:39;10.80;;;7.37;;
7213;SDS011;3648;50.614;13.830;2023-04-24T06:13:06;17.03;;;12.77;;
7213;SDS011;3648;50.614;13.830;2023-04-24T06:15:34;16.77;;;12.63;;
7213;SDS011;3648;50.614;13.830;2023-04-24T06:18:01;16.70;;;11.60;;
7213;SDS011;3648;50.614;13.830;2023-04-24T06:20:28;16.93;;;12.00;;
7213;SDS011;3648;50.614;13.830;2023-04-24T06:22:55;12.80;;;8.63;;
7213;SDS011;3648;50.614;13.830;2023-04-24T06:25:24;8.93;;;7.03;;
7213;SDS011;3648;50.614;13.830;2023-04-24T06:27:51;10.77;;;6.17;;
7213;SDS011;3648;50.614;13.830;2023-04-24T06:30:18;9.10;;;6.20;;
7213;SDS011;3648;50.614;13.830;2023-04-24T06:32:47;6.57;;;5.00;;
7213;SDS011;3648;50.614;13.830;2023-04-24T06:35:14;4.37;;;3.67;;
7213;SDS011;3648;50.614;13.830;2023-04-24T06:37:41;4.93;;;3.60;;
7213;SDS011;3648;50.614;13.830;2023-04-24T06:40:08;5.40;;;3.97;;
7213;SDS011;3648;50.614;13.830;2023-04-24T06:42:36;6.30;;;5.40;;
7213;SDS011;3648;50.614;13.830;2023-04-24T06:45:03;4.43;;;3.93;;
7213;SDS011;3648;50.614;13.830;2023-04-24T06:47:31;3.70;;;2.90;;
7213;SDS011;3648;50.614;13.830;2023-04-24T06:49:59;5.63;;;3.20;;
7213;SDS011;3648;50.614;13.830;2023-04-24T06:52:26;2.80;;;2.50;;
7213;SDS011;3648;50.614;13.830;2023-04-24T06:54:59;2.77;;;2.47;;
7213;SDS011;3648;50.614;13.830;2023-04-24T06:57:26;2.90;;;2.43;;
7213;SDS011;3648;50.614;13.830;2023-04-24T06:59:53;2.23;;;2.03;;
7213;SDS011;3648;50.614;13.830;2023-04-24T07:02:23;2.20;;;1.90;;
7213;SDS011;3648;50.614;13.830;2023-04-24T07:04:51;2.03;;;1.90;;
7213;SDS011;3648;50.614;13.830;2023-04-24T07:07:19;2.60;;;1.80;;
7213;SDS011;3648;50.614;13.830;2023-04-24T07:09:46;2.03;;;1.70;;
7213;SDS011;3648;50.614;13.830;2023-04-24T07:12:13;1.93;;;1.53;;
7213;SDS011;3648;50.614;13.830;2023-04-24T07:14:42;2.90;;;1.60;;
7213;SDS011;3648;50.614;13.830;2023-04-24T07:17:09;1.47;;;1.37;;
7213;SDS011;3648;50.614;13.830;2023-04-24T07:19:38;2.10;;;1.70;;
7213;SDS011;3648;50.614;13.830;2023-04-24T07:22:05;1.50;;;1.40;;
7213;SDS011;3648;50.614;13.830;2023-04-24T07:24:33;7.03;;;5.43;;
7213;SDS011;3648;50.614;13.830;2023-04-24T07:27:00;12.30;;;8.00;;
7213;SDS011;3648;50.614;13.830;2023-04-24T07:29:27;10.33;;;6.33;;
7213;SDS011;3648;50.614;13.830;2023-04-24T07:31:54;12.97;;;8.33;;
7213;SDS011;3648;50.614;13.830;2023-04-24T07:34:21;10.90;;;6.83;;
7213;SDS011;3648;50.614;13.830;2023-04-24T07:36:48;9.00;;;4.87;;
7213;SDS011;3648;50.614;13.830;2023-04-24T07:39:15;8.40;;;5.00;;
7213;SDS011;3648;50.614;13.830;2023-04-24T07:41:43;12.73;;;9.00;;
7213;SDS011;3648;50.614;13.830;2023-04-24T07:44:10;13.03;;;7.97;;
7213;SDS011;3648;50.614;13.830;2023-04-24T07:46:37;9.73;;;6.57;;
7213;SDS011;3648;50.614;13.830;2023-04-24T07:49:04;13.93;;;8.47;;
7213;SDS011;3648;50.614;13.830;2023-04-24T07:51:31;10.07;;;6.43;;
7213;SDS011;3648;50.614;13.830;2023-04-24T07:54:03;6.53;;;4.37;;
7213;SDS011;3648;50.614;13.830;2023-04-24T07:56:30;6.03;;;3.93;;
7213;SDS011;3648;50.614;13.830;2023-04-24T07:58:59;4.73;;;3.73;;
7213;SDS011;3648;50.614;13.830;2023-04-24T08:01:27;4.30;;;3.17;;
7213;SDS011;3648;50.614;13.830;2023-04-24T08:03:54;4.07;;;3.00;;
7213;SDS011;3648;50.614;13.830;2023-04-24T08:06:21;5.37;;;3.40;;
7213;SDS011;3648;50.614;13.830;2023-04-24T08:08:48;4.17;;;3.13;;
7213;SDS011;3648;50.614;13.830;2023-04-24T08:11:16;3.97;;;2.57;;
7213;SDS011;3648;50.614;13.830;2023-04-24T08:13:43;5.57;;;3.80;;
7213;SDS011;3648;50.614;13.830;2023-04-24T08:16:11;10.23;;;5.70;;
7213;SDS011;3648;50.614;13.830;2023-04-24T08:18:38;7.33;;;5.00;;
7213;SDS011;3648;50.614;13.830;2023-04-24T08:21:05;4.63;;;3.37;;
7213;SDS011;3648;50.614;13.830;2023-04-24T08:23:32;4.10;;;3.07;;
7213;SDS011;3648;50.614;13.830;2023-04-24T08:25:59;3.57;;;3.27;;
7213;SDS011;3648;50.614;13.830;2023-04-24T08:28:26;2.90;;;2.60;;
7213;SDS011;3648;50.614;13.830;2023-04-24T08:30:53;3.03;;;2.73;;
7213;SDS011;3648;50.614;13.830;2023-04-24T08:33:22;3.27;;;3.00;;
7213;SDS011;3648;50.614;13.830;2023-04-24T08:35:49;3.43;;;2.90;;
7213;SDS011;3648;50.614;13.830;2023-04-24T08:38:17;3.20;;;2.60;;
7213;SDS011;3648;50.614;13.830;2023-04-24T08:40:44;4.73;;;2.70;;
7213;SDS011;3648;50.614;13.830;2023-04-24T08:43:14;3.73;;;2.73;;
7213;SDS011;3648;50.614;13.830;2023-04-24T08:45:42;2.60;;;2.40;;
7213;SDS011;3648;50.614;13.830;2023-04-24T08:48:09;3.13;;;2.83;;
7213;SDS011;3648;50.614;13.830;2023-04-24T08:50:38;3.40;;;2.90;;
7213;SDS011;3648;50.614;13.830;2023-04-24T08:53:07;3.37;;;2.60;;
7213;SDS011;3648;50.614;13.830;2023-04-24T08:55:35;9.73;;;8.07;;
7213;SDS011;3648;50.614;13.830;2023-04-24T08:58:03;10.03;;;7.37;;
7213;SDS011;3648;50.614;13.830;2023-04-24T09:00:30;7.50;;;6.00;;
7213;SDS011;3648;50.614;13.830;2023-04-24T09:03:00;6.53;;;5.70;;
7213;SDS011;3648;50.614;13.830;2023-04-24T09:05:28;8.50;;;5.70;;
7213;SDS011;3648;50.614;13.830;2023-04-24T09:07:57;7.33;;;5.57;;
7213;SDS011;3648;50.614;13.830;2023-04-24T09:10:28;5.80;;;4.60;;
7213;SDS011;3648;50.614;13.830;2023-04-24T09:12:55;5.40;;;3.57;;
7213;SDS011;3648;50.614;13.830;2023-04-24T09:15:26;4.60;;;3.80;;
7213;SDS011;3648;50.614;13.830;2023-04-24T09:17:54;4.67;;;3.27;;
7213;SDS011;3648;50.614;13.830;2023-04-24T09:20:22;3.00;;;2.30;;
7213;SDS011;3648;50.614;13.830;2023-04-24T09:22:51;2.47;;;1.90;;
7213;SDS011;3648;50.614;13.830;2023-04-24T09:25:22;3.50;;;2.30;;
7213;SDS011;3648;50.614;13.830;2023-04-24T09:27:50;1.97;;;1.73;;
7213;SDS011;3648;50.614;13.830;2023-04-24T09:30:20;8.63;;;5.90;;
7213;SDS011;3648;50.614;13.830;2023-04-24T09:32:48;6.93;;;4.30;;
7213;SDS011;3648;50.614;13.830;2023-04-24T09:35:15;13.23;;;9.57;;
7213;SDS011;3648;50.614;13.830;2023-04-24T09:37:42;10.40;;;6.90;;
7213;SDS011;3648;50.614;13.830;2023-04-24T09:40:11;8.30;;;5.23;;
7213;SDS011;3648;50.614;13.830;2023-04-24T09:42:41;11.40;;;7.13;;
7213;SDS011;3648;50.614;13.830;2023-04-24T09:45:11;15.17;;;8.03;;
7213;SDS011;3648;50.614;13.830;2023-04-24T09:47:38;11.67;;;5.70;;
7213;SDS011;3648;50.614;13.830;2023-04-24T09:50:09;8.20;;;4.37;;
7213;SDS011;3648;50.614;13.830;2023-04-24T09:52:41;10.73;;;5.30;;
7213;SDS011;3648;50.614;13.830;2023-04-24T09:55:19;12.87;;;7.23;;
7213;SDS011;3648;50.614;13.830;2023-04-24T09:57:48;6.20;;;2.93;;
7213;SDS011;3648;50.614;13.830;2023-04-24T10:00:23;5.87;;;3.40;;
7213;SDS011;3648;50.614;13.830;2023-04-24T10:02:55;4.13;;;2.33;;
7213;SDS011;3648;50.614;13.830;2023-04-24T10:05:23;3.13;;;2.10;;
7213;SDS011;3648;50.614;13.830;2023-04-24T10:07:51;2.60;;;1.40;;
7213;SDS011;3648;50.614;13.830;2023-04-24T10:10:23;2.80;;;2.00;;
7213;SDS011;3648;50.614;13.830;2023-04-24T10:12:51;1.97;;;1.57;;
7213;SDS011;3648;50.614;13.830;2023-04-24T10:15:19;3.60;;;2.17;;
7213;SDS011;3648;50.614;13.830;2023-04-24T10:17:47;2.63;;;2.00;;
7213;SDS011;3648;50.614;13.830;2023-04-24T10:20:18;10.90;;;6.70;;
7213;SDS011;3648;50.614;13.830;2023-04-24T10:22:47;4.77;;;2.70;;
7213;SDS011;3648;50.614;13.830;2023-04-24T10:25:16;11.80;;;7.40;;
7213;SDS011;3648;50.614;13.830;2023-04-24T10:27:46;7.00;;;4.47;;
7213;SDS011;3648;50.614;13.830;2023-04-24T10:30:16;5.27;;;3.17;;
7213;SDS011;3648;50.614;13.830;2023-04-24T10:32:43;3.17;;;2.20;;
7213;SDS011;3648;50.614;13.830;2023-04-24T10:35:11;3.60;;;2.17;;
7213;SDS011;3648;50.614;13.830;2023-04-24T10:37:40;1.93;;;1.60;;
7213;SDS011;3648;50.614;13.830;2023-04-24T10:40:09;2.20;;;1.57;;
7213;SDS011;3648;50.614;13.830;2023-04-24T10:42:39;2.20;;;1.70;;
7213;SDS011;3648;50.614;13.830;2023-04-24T10:45:07;3.07;;;2.07;;
7213;SDS011;3648;50.614;13.830;2023-04-24T10:50:29;3.93;;;2.60;;
7213;SDS011;3648;50.614;13.830;2023-04-24T10:53:11;2.73;;;2.50;;
7213;SDS011;3648;50.614;13.830;2023-04-24T10:55:42;2.83;;;2.03;;
7213;SDS011;3648;50.614;13.830;2023-04-24T10:58:11;3.37;;;2.97;;
7213;SDS011;3648;50.614;13.830;2023-04-24T11:00:41;3.83;;;2.70;;
7213;SDS011;3648;50.614;13.830;2023-04-24T11:03:22;2.60;;;2.40;;
7213;SDS011;3648;50.614;13.830;2023-04-24T11:06:01;2.87;;;2.57;;
7213;SDS011;3648;50.614;13.830;2023-04-24T11:08:30;2.40;;;2.17;;
7213;SDS011;3648;50.614;13.830;2023-04-24T11:10:59;2.53;;;2.33;;
7213;SDS011;3648;50.614;13.830;2023-04-24T11:19:23;6.93;;;5.30;;
7213;SDS011;3648;50.614;13.830;2023-04-24T11:21:55;6.80;;;5.23;;
7213;SDS011;3648;50.614;13.830;2023-04-24T11:24:25;9.10;;;5.83;;
7213;SDS011;3648;50.614;13.830;2023-04-24T11:26:54;9.37;;;7.23;;
7213;SDS011;3648;50.614;13.830;2023-04-24T11:29:22;14.07;;;8.70;;
7213;SDS011;3648;50.614;13.830;2023-04-24T11:32:15;14.30;;;9.00;;
7213;SDS011;3648;50.614;13.830;2023-04-24T11:34:45;11.97;;;7.87;;
7213;SDS011;3648;50.614;13.830;2023-04-24T11:37:13;15.43;;;9.77;;
7213;SDS011;3648;50.614;13.830;2023-04-24T11:39:40;24.37;;;15.27;;
7213;SDS011;3648;50.614;13.830;2023-04-24T11:42:07;21.30;;;13.00;;
7213;SDS011;3648;50.614;13.830;2023-04-24T11:44:35;24.77;;;16.13;;
7213;SDS011;3648;50.614;13.830;2023-04-24T11:47:04;18.43;;;11.93;;
7213;SDS011;3648;50.614;13.830;2023-04-24T11:49:33;23.90;;;13.40;;
7213;SDS011;3648;50.614;13.830;2023-04-24T11:52:04;14.83;;;9.63;;
7213;SDS011;3648;50.614;13.830;2023-04-24T11:54:31;21.80;;;13.20;;
7213;SDS011;3648;50.614;13.830;2023-04-24T11:56:58;11.80;;;7.70;;
7213;SDS011;3648;50.614;13.830;2023-04-24T11:59:25;15.60;;;8.40;;
7213;SDS011;3648;50.614;13.830;2023-04-24T12:01:52;9.23;;;6.33;;
7213;SDS011;3648;50.614;13.830;2023-04-24T12:04:19;5.60;;;3.40;;
7213;SDS011;3648;50.614;13.830;2023-04-24T12:09:40;2.90;;;2.40;;
7213;SDS011;3648;50.614;13.830;2023-04-24T12:12:08;4.43;;;2.10;;
7213;SDS011;3648;50.614;13.830;2023-04-24T12:14:41;2.53;;;1.80;;
7213;SDS011;3648;50.614;13.830;2023-04-24T12:17:15;7.97;;;5.23;;
7213;SDS011;3648;50.614;13.830;2023-04-24T12:19:46;6.20;;;3.43;;
7213;SDS011;3648;50.614;13.830;2023-04-24T12:22:15;7.10;;;5.50;;
7213;SDS011;3648;50.614;13.830;2023-04-24T12:24:55;5.80;;;3.67;;
7213;SDS011;3648;50.614;13.830;2023-04-24T12:27:23;5.57;;;3.57;;
7213;SDS011;3648;50.614;13.830;2023-04-24T12:29:55;8.43;;;5.20;;
7213;SDS011;3648;50.614;13.830;2023-04-24T12:32:23;9.20;;;6.33;;
7213;SDS011;3648;50.614;13.830;2023-04-24T12:34:51;7.53;;;4.77;;
7213;SDS011;3648;50.614;13.830;2023-04-24T12:37:20;8.83;;;4.67;;
7213;SDS011;3648;50.614;13.830;2023-04-24T12:40:00;6.83;;;4.43;;
7213;SDS011;3648;50.614;13.830;2023-04-24T12:42:29;6.43;;;3.90;;
7213;SDS011;3648;50.614;13.830;2023-04-24T12:44:59;4.67;;;2.63;;
7213;SDS011;3648;50.614;13.830;2023-04-24T12:47:30;9.57;;;5.33;;
7213;SDS011;3648;50.614;13.830;2023-04-24T12:49:58;10.40;;;8.07;;
7213;SDS011;3648;50.614;13.830;2023-04-24T12:52:28;6.47;;;4.20;;
7213;SDS011;3648;50.614;13.830;2023-04-24T12:54:57;4.37;;;2.93;;
7213;SDS011;3648;50.614;13.830;2023-04-24T12:57:25;5.70;;;3.10;;
7213;SDS011;3648;50.614;13.830;2023-04-24T12:59:53;4.97;;;2.50;;
7213;SDS011;3648;50.614;13.830;2023-04-24T13:02:21;6.03;;;3.50;;
7213;SDS011;3648;50.614;13.830;2023-04-24T13:04:48;3.23;;;2.03;;
7213;SDS011;3648;50.614;13.830;2023-04-24T13:07:16;3.67;;;2.00;;
7213;SDS011;3648;50.614;13.830;2023-04-24T13:09:45;3.00;;;2.20;;
7213;SDS011;3648;50.614;13.830;2023-04-24T13:12:13;2.27;;;1.27;;
7213;SDS011;3648;50.614;13.830;2023-04-24T13:14:40;2.33;;;1.23;;
7213;SDS011;3648;50.614;13.830;2023-04-24T13:17:08;3.63;;;3.00;;
7213;SDS011;3648;50.614;13.830;2023-04-24T13:19:36;3.73;;;1.70;;
7213;SDS011;3648;50.614;13.830;2023-04-24T13:22:04;3.43;;;1.37;;
7213;SDS011;3648;50.614;13.830;2023-04-24T13:24:32;1.80;;;1.13;;
7213;SDS011;3648;50.614;13.830;2023-04-24T13:27:02;1.27;;;1.07;;
7213;SDS011;3648;50.614;13.830;2023-04-24T13:29:29;1.20;;;0.93;;
7213;SDS011;3648;50.614;13.830;2023-04-24T13:31:56;2.07;;;1.23;;
7213;SDS011;3648;50.614;13.830;2023-04-24T13:34:23;2.10;;;1.07;;
7213;SDS011;3648;50.614;13.830;2023-04-24T13:36:50;1.10;;;0.80;;
7213;SDS011;3648;50.614;13.830;2023-04-24T13:39:19;1.07;;;0.97;;
7213;SDS011;3648;50.614;13.830;2023-04-24T13:41:46;1.00;;;0.90;;
7213;SDS011;3648;50.614;13.830;2023-04-24T13:44:15;1.07;;;0.90;;
7213;SDS011;3648;50.614;13.830;2023-04-24T13:46:43;2.07;;;1.63;;
7213;SDS011;3648;50.614;13.830;2023-04-24T13:49:11;2.90;;;1.57;;
7213;SDS011;3648;50.614;13.830;2023-04-24T13:51:38;2.73;;;1.40;;
7213;SDS011;3648;50.614;13.830;2023-04-24T13:54:06;2.17;;;1.07;;
7213;SDS011;3648;50.614;13.830;2023-04-24T13:56:33;0.93;;;0.83;;
7213;SDS011;3648;50.614;13.830;2023-04-24T13:59:00;1.60;;;1.00;;
7213;SDS011;3648;50.614;13.830;2023-04-24T14:01:28;2.30;;;1.00;;
7213;SDS011;3648;50.614;13.830;2023-04-24T14:03:55;1.13;;;0.77;;
7213;SDS011;3648;50.614;13.830;2023-04-24T14:06:22;1.57;;;0.80;;
7213;SDS011;3648;50.614;13.830;2023-04-24T14:08:50;0.77;;;0.70;;
7213;SDS011;3648;50.614;13.830;2023-04-24T14:11:18;2.10;;;0.93;;
7213;SDS011;3648;50.614;13.830;2023-04-24T14:13:45;1.73;;;1.20;;
7213;SDS011;3648;50.614;13.830;2023-04-24T14:16:12;1.00;;;0.80;;
7213;SDS011;3648;50.614;13.830;2023-04-24T14:18:41;1.37;;;1.00;;
7213;SDS011;3648;50.614;13.830;2023-04-24T14:21:08;1.37;;;1.07;;
7213;SDS011;3648;50.614;13.830;2023-04-24T14:23:35;1.23;;;1.10;;
7213;SDS011;3648;50.614;13.830;2023-04-24T14:26:02;2.10;;;1.43;;
7213;SDS011;3648;50.614;13.830;2023-04-24T14:28:29;2.10;;;1.53;;
7213;SDS011;3648;50.614;13.830;2023-04-24T14:30:56;2.50;;;1.53;;
7213;SDS011;3648;50.614;13.830;2023-04-24T14:33:22;1.90;;;1.30;;
7213;SDS011;3648;50.614;13.830;2023-04-24T14:35:51;3.40;;;1.80;;
7213;SDS011;3648;50.614;13.830;2023-04-24T14:38:18;2.77;;;1.27;;
7213;SDS011;3648;50.614;13.830;2023-04-24T14:40:45;1.60;;;1.27;;
7213;SDS011;3648;50.614;13.830;2023-04-24T14:43:12;1.30;;;1.00;;
7213;SDS011;3648;50.614;13.830;2023-04-24T14:45:39;0.87;;;0.73;;
7213;SDS011;3648;50.614;13.830;2023-04-24T14:48:06;0.97;;;0.83;;
7213;SDS011;3648;50.614;13.830;2023-04-24T14:50:34;1.03;;;0.70;;
7213;SDS011;3648;50.614;13.830;2023-04-24T14:53:02;1.50;;;1.07;;
7213;SDS011;3648;50.614;13.830;2023-04-24T14:55:30;0.80;;;0.80;;
7213;SDS011;3648;50.614;13.830;2023-04-24T14:57:59;1.00;;;0.90;;
7213;SDS011;3648;50.614;13.830;2023-04-24T15:00:26;1.20;;;1.10;;
7213;SDS011;3648;50.614;13.830;2023-04-24T15:02:53;1.73;;;0.83;;
7213;SDS011;3648;50.614;13.830;2023-04-24T15:05:20;0.70;;;0.70;;
7213;SDS011;3648;50.614;13.830;2023-04-24T15:07:47;1.70;;;0.87;;
7213;SDS011;3648;50.614;13.830;2023-04-24T15:10:16;2.53;;;1.10;;
7213;SDS011;3648;50.614;13.830;2023-04-24T15:12:43;0.87;;;0.83;;